sensor_id;sensor_type;location;lat;lon;timestamp;P1;durP1;ratioP1;P2;durP2;ratioP2
59728;SDS011;45588;51.598;5.618;2023-08-06T00:00:17;9.77;;;4.40;;
59728;SDS011;45588;51.598;5.618;2023-08-06T00:02:43;6.80;;;4.07;;
59728;SDS011;45588;51.598;5.618;2023-08-06T00:05:08;7.07;;;4.47;;
59728;SDS011;45588;51.598;5.618;2023-08-06T00:07:33;9.00;;;4.50;;
59728;SDS011;45588;51.598;5.618;2023-08-06T00:09:58;6.77;;;5.23;;
59728;SDS011;45588;51.598;5.618;2023-08-06T00:12:23;5.53;;;4.45;;
59728;SDS011;45588;51.598;5.618;2023-08-06T00:14:52;8.63;;;5.10;;
59728;SDS011;45588;51.598;5.618;2023-08-06T00:17:17;5.88;;;4.57;;
59728;SDS011;45588;51.598;5.618;2023-08-06T00:19:42;8.30;;;4.85;;
59728;SDS011;45588;51.598;5.618;2023-08-06T00:22:08;9.27;;;8.27;;
59728;SDS011;45588;51.598;5.618;2023-08-06T00:24:33;8.02;;;4.70;;
59728;SDS011;45588;51.598;5.618;2023-08-06T00:26:59;10.85;;;8.80;;
59728;SDS011;45588;51.598;5.618;2023-08-06T00:29:24;7.47;;;4.75;;
59728;SDS011;45588;51.598;5.618;2023-08-06T00:31:49;8.05;;;4.32;;
59728;SDS011;45588;51.598;5.618;2023-08-06T00:34:14;10.97;;;8.60;;
59728;SDS011;45588;51.598;5.618;2023-08-06T00:36:39;7.30;;;4.68;;
59728;SDS011;45588;51.598;5.618;2023-08-06T00:39:05;8.38;;;4.72;;
59728;SDS011;45588;51.598;5.618;2023-08-06T00:41:32;7.25;;;4.30;;
59728;SDS011;45588;51.598;5.618;2023-08-06T00:43:57;12.32;;;4.93;;
59728;SDS011;45588;51.598;5.618;2023-08-06T00:46:22;9.63;;;8.67;;
59728;SDS011;45588;51.598;5.618;2023-08-06T00:48:47;11.70;;;8.52;;
59728;SDS011;45588;51.598;5.618;2023-08-06T00:51:12;9.35;;;8.30;;
59728;SDS011;45588;51.598;5.618;2023-08-06T00:53:38;5.90;;;4.40;;
59728;SDS011;45588;51.598;5.618;2023-08-06T00:56:04;6.10;;;4.22;;
59728;SDS011;45588;51.598;5.618;2023-08-06T00:58:29;7.60;;;3.85;;
59728;SDS011;45588;51.598;5.618;2023-08-06T01:00:54;7.32;;;4.50;;
59728;SDS011;45588;51.598;5.618;2023-08-06T01:03:19;11.35;;;5.13;;
59728;SDS011;45588;51.598;5.618;2023-08-06T01:05:45;10.57;;;4.93;;
59728;SDS011;45588;51.598;5.618;2023-08-06T01:08:13;7.88;;;4.38;;
59728;SDS011;45588;51.598;5.618;2023-08-06T01:18:08;6.38;;;4.60;;
59728;SDS011;45588;51.598;5.618;2023-08-06T01:20:33;6.63;;;4.45;;
59728;SDS011;45588;51.598;5.618;2023-08-06T01:22:59;6.13;;;3.92;;
59728;SDS011;45588;51.598;5.618;2023-08-06T01:25:26;5.40;;;3.97;;
59728;SDS011;45588;51.598;5.618;2023-08-06T01:27:55;10.07;;;7.90;;
59728;SDS011;45588;51.598;5.618;2023-08-06T01:30:25;6.05;;;4.20;;
59728;SDS011;45588;51.598;5.618;2023-08-06T01:32:53;4.97;;;3.58;;
59728;SDS011;45588;51.598;5.618;2023-08-06T01:35:19;6.13;;;4.10;;
59728;SDS011;45588;51.598;5.618;2023-08-06T01:37:44;7.77;;;4.27;;
59728;SDS011;45588;51.598;5.618;2023-08-06T01:40:11;9.52;;;4.00;;
59728;SDS011;45588;51.598;5.618;2023-08-06T01:42:37;6.32;;;3.78;;
59728;SDS011;45588;51.598;5.618;2023-08-06T01:45:02;5.55;;;4.05;;
59728;SDS011;45588;51.598;5.618;2023-08-06T01:47:27;6.25;;;4.43;;
59728;SDS011;45588;51.598;5.618;2023-08-06T01:49:52;11.00;;;7.10;;
59728;SDS011;45588;51.598;5.618;2023-08-06T01:52:18;8.10;;;4.77;;
59728;SDS011;45588;51.598;5.618;2023-08-06T01:54:43;10.23;;;7.90;;
59728;SDS011;45588;51.598;5.618;2023-08-06T01:57:08;9.30;;;8.20;;
59728;SDS011;45588;51.598;5.618;2023-08-06T01:59:33;6.63;;;3.93;;
59728;SDS011;45588;51.598;5.618;2023-08-06T02:01:58;10.60;;;4.22;;
59728;SDS011;45588;51.598;5.618;2023-08-06T02:04:24;7.03;;;3.85;;
59728;SDS011;45588;51.598;5.618;2023-08-06T02:06:49;9.50;;;8.20;;
59728;SDS011;45588;51.598;5.618;2023-08-06T02:09:14;9.20;;;8.30;;
59728;SDS011;45588;51.598;5.618;2023-08-06T02:11:39;6.28;;;4.38;;
59728;SDS011;45588;51.598;5.618;2023-08-06T02:14:05;9.18;;;7.70;;
59728;SDS011;45588;51.598;5.618;2023-08-06T02:16:30;10.43;;;7.80;;
59728;SDS011;45588;51.598;5.618;2023-08-06T02:18:55;7.70;;;4.60;;
59728;SDS011;45588;51.598;5.618;2023-08-06T02:21:20;5.57;;;4.17;;
59728;SDS011;45588;51.598;5.618;2023-08-06T02:23:45;9.75;;;4.88;;
59728;SDS011;45588;51.598;5.618;2023-08-06T02:26:11;8.45;;;4.10;;
59728;SDS011;45588;51.598;5.618;2023-08-06T02:28:36;11.67;;;7.97;;
59728;SDS011;45588;51.598;5.618;2023-08-06T02:31:01;8.30;;;4.73;;
59728;SDS011;45588;51.598;5.618;2023-08-06T02:33:26;12.35;;;7.68;;
59728;SDS011;45588;51.598;5.618;2023-08-06T02:35:58;8.13;;;4.87;;
59728;SDS011;45588;51.598;5.618;2023-08-06T02:38:23;8.15;;;4.10;;
59728;SDS011;45588;51.598;5.618;2023-08-06T02:40:48;5.10;;;4.10;;
59728;SDS011;45588;51.598;5.618;2023-08-06T02:43:13;8.13;;;5.03;;
59728;SDS011;45588;51.598;5.618;2023-08-06T02:45:39;8.73;;;3.92;;
59728;SDS011;45588;51.598;5.618;2023-08-06T02:48:04;10.88;;;7.47;;
59728;SDS011;45588;51.598;5.618;2023-08-06T02:50:30;6.38;;;4.10;;
59728;SDS011;45588;51.598;5.618;2023-08-06T02:52:55;10.15;;;7.97;;
59728;SDS011;45588;51.598;5.618;2023-08-06T02:55:20;6.97;;;4.37;;
59728;SDS011;45588;51.598;5.618;2023-08-06T02:57:45;7.87;;;4.50;;
59728;SDS011;45588;51.598;5.618;2023-08-06T03:00:11;8.20;;;4.43;;
59728;SDS011;45588;51.598;5.618;2023-08-06T03:02:36;9.95;;;7.03;;
59728;SDS011;45588;51.598;5.618;2023-08-06T03:05:02;4.90;;;3.65;;
59728;SDS011;45588;51.598;5.618;2023-08-06T03:07:28;7.18;;;3.90;;
59728;SDS011;45588;51.598;5.618;2023-08-06T03:09:53;7.50;;;4.57;;
59728;SDS011;45588;51.598;5.618;2023-08-06T03:12:18;9.80;;;7.70;;
59728;SDS011;45588;51.598;5.618;2023-08-06T03:14:44;10.05;;;7.90;;
59728;SDS011;45588;51.598;5.618;2023-08-06T03:17:09;11.23;;;7.97;;
59728;SDS011;45588;51.598;5.618;2023-08-06T03:19:34;9.38;;;8.07;;
59728;SDS011;45588;51.598;5.618;2023-08-06T03:21:59;9.93;;;7.78;;
59728;SDS011;45588;51.598;5.618;2023-08-06T03:24:25;10.37;;;7.53;;
59728;SDS011;45588;51.598;5.618;2023-08-06T03:26:50;13.37;;;8.20;;
59728;SDS011;45588;51.598;5.618;2023-08-06T03:29:15;7.30;;;3.83;;
59728;SDS011;45588;51.598;5.618;2023-08-06T03:31:40;6.68;;;4.00;;
59728;SDS011;45588;51.598;5.618;2023-08-06T03:34:06;8.88;;;7.82;;
59728;SDS011;45588;51.598;5.618;2023-08-06T03:36:31;7.63;;;6.90;;
59728;SDS011;45588;51.598;5.618;2023-08-06T03:38:56;6.85;;;4.35;;
59728;SDS011;45588;51.598;5.618;2023-08-06T03:41:22;6.70;;;4.50;;
59728;SDS011;45588;51.598;5.618;2023-08-06T03:43:47;8.25;;;4.18;;
59728;SDS011;45588;51.598;5.618;2023-08-06T03:46:12;6.20;;;4.05;;
59728;SDS011;45588;51.598;5.618;2023-08-06T03:48:37;6.53;;;4.03;;
59728;SDS011;45588;51.598;5.618;2023-08-06T03:51:02;9.20;;;3.83;;
59728;SDS011;45588;51.598;5.618;2023-08-06T03:53:28;7.90;;;3.75;;
59728;SDS011;45588;51.598;5.618;2023-08-06T03:55:53;5.78;;;3.50;;
59728;SDS011;45588;51.598;5.618;2023-08-06T03:58:20;4.63;;;3.35;;
59728;SDS011;45588;51.598;5.618;2023-08-06T04:00:45;5.13;;;3.25;;
59728;SDS011;45588;51.598;5.618;2023-08-06T04:03:11;10.13;;;6.07;;
59728;SDS011;45588;51.598;5.618;2023-08-06T04:05:36;6.80;;;2.90;;
59728;SDS011;45588;51.598;5.618;2023-08-06T04:08:01;8.13;;;3.40;;
59728;SDS011;45588;51.598;5.618;2023-08-06T04:10:26;7.68;;;3.45;;
59728;SDS011;45588;51.598;5.618;2023-08-06T04:12:51;5.53;;;3.30;;
59728;SDS011;45588;51.598;5.618;2023-08-06T04:15:17;8.37;;;3.27;;
59728;SDS011;45588;51.598;5.618;2023-08-06T04:17:42;4.63;;;3.57;;
59728;SDS011;45588;51.598;5.618;2023-08-06T04:20:07;5.90;;;3.57;;
59728;SDS011;45588;51.598;5.618;2023-08-06T04:22:32;7.68;;;3.60;;
59728;SDS011;45588;51.598;5.618;2023-08-06T04:24:58;5.13;;;4.13;;
59728;SDS011;45588;51.598;5.618;2023-08-06T04:27:23;6.27;;;3.87;;
59728;SDS011;45588;51.598;5.618;2023-08-06T04:29:48;6.20;;;3.50;;
59728;SDS011;45588;51.598;5.618;2023-08-06T04:32:13;8.48;;;6.35;;
59728;SDS011;45588;51.598;5.618;2023-08-06T04:34:38;10.77;;;7.05;;
59728;SDS011;45588;51.598;5.618;2023-08-06T04:37:04;10.07;;;7.13;;
59728;SDS011;45588;51.598;5.618;2023-08-06T04:39:29;8.50;;;3.85;;
59728;SDS011;45588;51.598;5.618;2023-08-06T04:41:57;6.03;;;3.92;;
59728;SDS011;45588;51.598;5.618;2023-08-06T04:44:22;6.60;;;3.33;;
59728;SDS011;45588;51.598;5.618;2023-08-06T04:46:48;10.80;;;7.00;;
59728;SDS011;45588;51.598;5.618;2023-08-06T04:49:13;8.38;;;3.40;;
59728;SDS011;45588;51.598;5.618;2023-08-06T04:51:38;7.90;;;4.10;;
59728;SDS011;45588;51.598;5.618;2023-08-06T04:54:03;11.48;;;7.55;;
59728;SDS011;45588;51.598;5.618;2023-08-06T04:56:29;6.53;;;4.37;;
59728;SDS011;45588;51.598;5.618;2023-08-06T04:58:54;6.00;;;3.95;;
59728;SDS011;45588;51.598;5.618;2023-08-06T05:01:19;7.70;;;4.00;;
59728;SDS011;45588;51.598;5.618;2023-08-06T05:03:44;6.50;;;3.97;;
59728;SDS011;45588;51.598;5.618;2023-08-06T05:06:10;9.70;;;4.47;;
59728;SDS011;45588;51.598;5.618;2023-08-06T05:08:35;9.10;;;4.10;;
59728;SDS011;45588;51.598;5.618;2023-08-06T05:11:00;12.38;;;7.72;;
59728;SDS011;45588;51.598;5.618;2023-08-06T05:13:26;10.83;;;4.40;;
59728;SDS011;45588;51.598;5.618;2023-08-06T05:15:53;9.20;;;7.38;;
59728;SDS011;45588;51.598;5.618;2023-08-06T05:18:18;9.45;;;5.28;;
59728;SDS011;45588;51.598;5.618;2023-08-06T05:20:44;7.65;;;6.80;;
59728;SDS011;45588;51.598;5.618;2023-08-06T05:23:09;10.52;;;4.15;;
59728;SDS011;45588;51.598;5.618;2023-08-06T05:25:35;6.40;;;3.50;;
59728;SDS011;45588;51.598;5.618;2023-08-06T05:28:00;9.02;;;6.82;;
59728;SDS011;45588;51.598;5.618;2023-08-06T05:30:26;14.32;;;11.73;;
59728;SDS011;45588;51.598;5.618;2023-08-06T05:32:51;17.92;;;12.23;;
59728;SDS011;45588;51.598;5.618;2023-08-06T05:35:17;17.67;;;15.97;;
59728;SDS011;45588;51.598;5.618;2023-08-06T05:37:42;17.08;;;15.45;;
59728;SDS011;45588;51.598;5.618;2023-08-06T05:40:07;14.03;;;10.07;;
59728;SDS011;45588;51.598;5.618;2023-08-06T05:42:32;14.60;;;11.32;;
59728;SDS011;45588;51.598;5.618;2023-08-06T05:44:58;19.45;;;17.45;;
59728;SDS011;45588;51.598;5.618;2023-08-06T05:47:23;21.30;;;19.20;;
59728;SDS011;45588;51.598;5.618;2023-08-06T05:49:48;13.43;;;9.30;;
59728;SDS011;45588;51.598;5.618;2023-08-06T05:52:13;12.87;;;6.20;;
59728;SDS011;45588;51.598;5.618;2023-08-06T05:54:38;11.00;;;5.07;;
59728;SDS011;45588;51.598;5.618;2023-08-06T05:57:05;7.15;;;5.40;;
59728;SDS011;45588;51.598;5.618;2023-08-06T05:59:30;10.77;;;7.78;;
59728;SDS011;45588;51.598;5.618;2023-08-06T06:01:56;9.30;;;8.30;;
59728;SDS011;45588;51.598;5.618;2023-08-06T06:04:21;9.90;;;5.80;;
59728;SDS011;45588;51.598;5.618;2023-08-06T06:06:46;9.30;;;6.38;;
59728;SDS011;45588;51.598;5.618;2023-08-06T06:09:11;11.13;;;9.73;;
59728;SDS011;45588;51.598;5.618;2023-08-06T06:11:36;12.53;;;8.87;;
59728;SDS011;45588;51.598;5.618;2023-08-06T06:14:02;14.18;;;8.80;;
59728;SDS011;45588;51.598;5.618;2023-08-06T06:16:27;11.88;;;10.07;;
59728;SDS011;45588;51.598;5.618;2023-08-06T06:18:52;16.27;;;13.10;;
59728;SDS011;45588;51.598;5.618;2023-08-06T06:21:19;9.95;;;7.18;;
59728;SDS011;45588;51.598;5.618;2023-08-06T06:23:44;12.57;;;8.43;;
59728;SDS011;45588;51.598;5.618;2023-08-06T06:26:10;13.90;;;9.20;;
59728;SDS011;45588;51.598;5.618;2023-08-06T06:28:35;16.58;;;14.52;;
59728;SDS011;45588;51.598;5.618;2023-08-06T06:31:00;14.25;;;10.45;;
59728;SDS011;45588;51.598;5.618;2023-08-06T06:33:26;14.68;;;10.02;;
59728;SDS011;45588;51.598;5.618;2023-08-06T06:35:51;20.17;;;17.52;;
59728;SDS011;45588;51.598;5.618;2023-08-06T06:38:16;14.73;;;10.43;;
59728;SDS011;45588;51.598;5.618;2023-08-06T06:40:41;15.17;;;10.87;;
59728;SDS011;45588;51.598;5.618;2023-08-06T06:43:07;18.00;;;11.50;;
59728;SDS011;45588;51.598;5.618;2023-08-06T06:45:32;21.40;;;19.03;;
59728;SDS011;45588;51.598;5.618;2023-08-06T06:47:57;20.43;;;18.57;;
59728;SDS011;45588;51.598;5.618;2023-08-06T06:50:22;21.87;;;19.73;;
59728;SDS011;45588;51.598;5.618;2023-08-06T06:52:47;15.90;;;12.23;;
59728;SDS011;45588;51.598;5.618;2023-08-06T06:55:13;13.87;;;10.20;;
59728;SDS011;45588;51.598;5.618;2023-08-06T06:57:38;16.90;;;11.68;;
59728;SDS011;45588;51.598;5.618;2023-08-06T07:00:03;18.93;;;17.13;;
59728;SDS011;45588;51.598;5.618;2023-08-06T07:02:28;17.15;;;10.10;;
59728;SDS011;45588;51.598;5.618;2023-08-06T07:04:54;15.48;;;10.07;;
59728;SDS011;45588;51.598;5.618;2023-08-06T07:07:19;16.08;;;9.77;;
59728;SDS011;45588;51.598;5.618;2023-08-06T07:09:44;17.05;;;8.90;;
59728;SDS011;45588;51.598;5.618;2023-08-06T07:12:10;15.97;;;14.30;;
59728;SDS011;45588;51.598;5.618;2023-08-06T07:14:35;15.83;;;14.23;;
59728;SDS011;45588;51.598;5.618;2023-08-06T07:17:00;17.20;;;14.47;;
59728;SDS011;45588;51.598;5.618;2023-08-06T07:19:25;16.80;;;14.88;;
59728;SDS011;45588;51.598;5.618;2023-08-06T07:21:50;15.87;;;9.33;;
59728;SDS011;45588;51.598;5.618;2023-08-06T07:24:16;12.65;;;8.65;;
59728;SDS011;45588;51.598;5.618;2023-08-06T07:26:41;20.20;;;16.27;;
59728;SDS011;45588;51.598;5.618;2023-08-06T07:29:06;14.07;;;9.30;;
59728;SDS011;45588;51.598;5.618;2023-08-06T07:31:31;22.80;;;10.67;;
59728;SDS011;45588;51.598;5.618;2023-08-06T07:33:56;17.92;;;16.10;;
59728;SDS011;45588;51.598;5.618;2023-08-06T07:36:22;19.05;;;17.25;;
59728;SDS011;45588;51.598;5.618;2023-08-06T07:38:47;16.65;;;11.00;;
59728;SDS011;45588;51.598;5.618;2023-08-06T07:41:16;14.85;;;11.00;;
59728;SDS011;45588;51.598;5.618;2023-08-06T07:43:41;14.77;;;10.55;;
59728;SDS011;45588;51.598;5.618;2023-08-06T07:46:07;15.73;;;10.60;;
59728;SDS011;45588;51.598;5.618;2023-08-06T07:48:33;17.88;;;16.17;;
59728;SDS011;45588;51.598;5.618;2023-08-06T07:50:58;14.32;;;9.73;;
59728;SDS011;45588;51.598;5.618;2023-08-06T07:53:24;14.13;;;9.63;;
59728;SDS011;45588;51.598;5.618;2023-08-06T07:55:52;12.35;;;9.05;;
59728;SDS011;45588;51.598;5.618;2023-08-06T07:58:18;11.93;;;8.48;;
59728;SDS011;45588;51.598;5.618;2023-08-06T08:00:43;17.70;;;15.30;;
59728;SDS011;45588;51.598;5.618;2023-08-06T08:03:10;15.38;;;13.75;;
59728;SDS011;45588;51.598;5.618;2023-08-06T08:05:35;12.95;;;10.00;;
59728;SDS011;45588;51.598;5.618;2023-08-06T08:08:01;3.73;;;2.80;;
59728;SDS011;45588;51.598;5.618;2023-08-06T08:10:26;1.93;;;1.50;;
59728;SDS011;45588;51.598;5.618;2023-08-06T08:12:51;1.73;;;1.30;;
59728;SDS011;45588;51.598;5.618;2023-08-06T08:15:16;2.43;;;0.93;;
59728;SDS011;45588;51.598;5.618;2023-08-06T08:17:42;2.00;;;1.75;;
59728;SDS011;45588;51.598;5.618;2023-08-06T08:20:07;11.00;;;3.90;;
59728;SDS011;45588;51.598;5.618;2023-08-06T08:22:36;4.28;;;2.13;;
59728;SDS011;45588;51.598;5.618;2023-08-06T08:25:01;5.13;;;4.13;;
59728;SDS011;45588;51.598;5.618;2023-08-06T08:27:26;2.47;;;2.27;;
59728;SDS011;45588;51.598;5.618;2023-08-06T08:29:51;2.63;;;2.43;;
59728;SDS011;45588;51.598;5.618;2023-08-06T08:32:17;8.07;;;3.43;;
59728;SDS011;45588;51.598;5.618;2023-08-06T08:34:42;3.37;;;3.07;;
59728;SDS011;45588;51.598;5.618;2023-08-06T08:37:07;4.95;;;3.58;;
59728;SDS011;45588;51.598;5.618;2023-08-06T08:39:32;7.40;;;6.70;;
59728;SDS011;45588;51.598;5.618;2023-08-06T08:41:57;4.40;;;3.97;;
59728;SDS011;45588;51.598;5.618;2023-08-06T08:44:23;6.70;;;5.03;;
59728;SDS011;45588;51.598;5.618;2023-08-06T08:46:53;9.77;;;5.78;;
59728;SDS011;45588;51.598;5.618;2023-08-06T08:49:18;9.77;;;8.95;;
59728;SDS011;45588;51.598;5.618;2023-08-06T08:51:44;10.35;;;4.70;;
59728;SDS011;45588;51.598;5.618;2023-08-06T08:54:10;10.60;;;4.32;;
59728;SDS011;45588;51.598;5.618;2023-08-06T08:56:38;6.28;;;3.97;;
59728;SDS011;45588;51.598;5.618;2023-08-06T08:59:03;6.60;;;4.63;;
59728;SDS011;45588;51.598;5.618;2023-08-06T09:01:28;8.83;;;3.87;;
59728;SDS011;45588;51.598;5.618;2023-08-06T09:03:53;9.85;;;4.40;;
59728;SDS011;45588;51.598;5.618;2023-08-06T09:06:19;6.82;;;4.03;;
59728;SDS011;45588;51.598;5.618;2023-08-06T09:08:47;9.23;;;4.38;;
59728;SDS011;45588;51.598;5.618;2023-08-06T09:11:14;10.23;;;4.03;;
59728;SDS011;45588;51.598;5.618;2023-08-06T09:13:39;7.20;;;3.97;;
59728;SDS011;45588;51.598;5.618;2023-08-06T09:16:05;9.68;;;4.50;;
59728;SDS011;45588;51.598;5.618;2023-08-06T09:18:30;5.00;;;3.58;;
59728;SDS011;45588;51.598;5.618;2023-08-06T09:20:56;7.65;;;3.20;;
59728;SDS011;45588;51.598;5.618;2023-08-06T09:23:27;4.30;;;3.72;;
59728;SDS011;45588;51.598;5.618;2023-08-06T09:25:53;6.05;;;3.95;;
59728;SDS011;45588;51.598;5.618;2023-08-06T09:28:18;6.23;;;2.77;;
59728;SDS011;45588;51.598;5.618;2023-08-06T09:30:43;9.67;;;3.17;;
59728;SDS011;45588;51.598;5.618;2023-08-06T09:33:12;6.18;;;2.63;;
59728;SDS011;45588;51.598;5.618;2023-08-06T09:35:42;7.10;;;4.07;;
59728;SDS011;45588;51.598;5.618;2023-08-06T09:38:08;9.13;;;3.73;;
59728;SDS011;45588;51.598;5.618;2023-08-06T09:40:33;8.23;;;3.15;;
59728;SDS011;45588;51.598;5.618;2023-08-06T09:42:59;7.57;;;5.57;;
59728;SDS011;45588;51.598;5.618;2023-08-06T09:45:34;10.57;;;6.25;;
59728;SDS011;45588;51.598;5.618;2023-08-06T09:48:00;8.60;;;5.80;;
59728;SDS011;45588;51.598;5.618;2023-08-06T09:50:29;6.50;;;2.95;;
59728;SDS011;45588;51.598;5.618;2023-08-06T09:52:55;8.48;;;3.42;;
59728;SDS011;45588;51.598;5.618;2023-08-06T09:55:21;10.27;;;5.45;;
59728;SDS011;45588;51.598;5.618;2023-08-06T09:57:46;11.43;;;5.97;;
59728;SDS011;45588;51.598;5.618;2023-08-06T10:00:12;10.70;;;5.28;;
59728;SDS011;45588;51.598;5.618;2023-08-06T10:02:38;7.93;;;5.50;;
59728;SDS011;45588;51.598;5.618;2023-08-06T10:05:07;11.90;;;2.95;;
59728;SDS011;45588;51.598;5.618;2023-08-06T10:07:32;6.20;;;2.88;;
59728;SDS011;45588;51.598;5.618;2023-08-06T10:09:58;4.60;;;3.00;;
59728;SDS011;45588;51.598;5.618;2023-08-06T10:12:23;9.73;;;3.50;;
59728;SDS011;45588;51.598;5.618;2023-08-06T10:14:50;8.38;;;2.78;;
59728;SDS011;45588;51.598;5.618;2023-08-06T10:17:18;10.10;;;5.30;;
59728;SDS011;45588;51.598;5.618;2023-08-06T10:19:43;10.18;;;3.97;;
59728;SDS011;45588;51.598;5.618;2023-08-06T10:22:12;7.90;;;3.67;;
59728;SDS011;45588;51.598;5.618;2023-08-06T10:24:54;8.18;;;3.70;;
59728;SDS011;45588;51.598;5.618;2023-08-06T10:29:54;8.70;;;3.65;;
59728;SDS011;45588;51.598;5.618;2023-08-06T10:32:19;9.75;;;3.47;;
59728;SDS011;45588;51.598;5.618;2023-08-06T10:34:58;7.85;;;3.42;;
59728;SDS011;45588;51.598;5.618;2023-08-06T10:37:24;7.00;;;3.75;;
59728;SDS011;45588;51.598;5.618;2023-08-06T10:39:52;11.60;;;5.78;;
59728;SDS011;45588;51.598;5.618;2023-08-06T10:42:21;9.15;;;5.25;;
59728;SDS011;45588;51.598;5.618;2023-08-06T10:47:30;10.30;;;3.85;;
59728;SDS011;45588;51.598;5.618;2023-08-06T10:50:02;7.38;;;3.88;;
59728;SDS011;45588;51.598;5.618;2023-08-06T10:52:28;6.97;;;3.63;;
59728;SDS011;45588;51.598;5.618;2023-08-06T10:54:54;7.80;;;3.55;;
59728;SDS011;45588;51.598;5.618;2023-08-06T10:57:19;10.32;;;5.72;;
59728;SDS011;45588;51.598;5.618;2023-08-06T10:59:44;6.13;;;3.25;;
59728;SDS011;45588;51.598;5.618;2023-08-06T11:02:09;8.97;;;3.50;;
59728;SDS011;45588;51.598;5.618;2023-08-06T11:04:35;13.43;;;7.22;;
59728;SDS011;45588;51.598;5.618;2023-08-06T11:07:00;8.75;;;3.70;;
59728;SDS011;45588;51.598;5.618;2023-08-06T11:09:26;7.88;;;3.00;;
59728;SDS011;45588;51.598;5.618;2023-08-06T11:11:51;7.72;;;4.13;;
59728;SDS011;45588;51.598;5.618;2023-08-06T11:14:16;9.97;;;4.03;;
59728;SDS011;45588;51.598;5.618;2023-08-06T11:16:42;6.50;;;3.90;;
59728;SDS011;45588;51.598;5.618;2023-08-06T11:19:07;9.10;;;5.97;;
59728;SDS011;45588;51.598;5.618;2023-08-06T11:21:35;9.30;;;6.03;;
59728;SDS011;45588;51.598;5.618;2023-08-06T11:24:01;8.02;;;3.88;;
59728;SDS011;45588;51.598;5.618;2023-08-06T11:26:26;7.28;;;3.78;;
59728;SDS011;45588;51.598;5.618;2023-08-06T11:28:53;9.48;;;5.32;;
59728;SDS011;45588;51.598;5.618;2023-08-06T11:31:19;7.73;;;5.43;;
59728;SDS011;45588;51.598;5.618;2023-08-06T11:33:44;9.35;;;5.47;;
59728;SDS011;45588;51.598;5.618;2023-08-06T11:36:09;7.90;;;4.85;;
59728;SDS011;45588;51.598;5.618;2023-08-06T11:38:35;5.95;;;4.38;;
59728;SDS011;45588;51.598;5.618;2023-08-06T11:41:00;6.68;;;4.55;;
59728;SDS011;45588;51.598;5.618;2023-08-06T11:43:25;7.80;;;3.05;;
59728;SDS011;45588;51.598;5.618;2023-08-06T11:45:51;3.77;;;2.20;;
59728;SDS011;45588;51.598;5.618;2023-08-06T11:48:18;6.15;;;3.05;;
59728;SDS011;45588;51.598;5.618;2023-08-06T11:50:43;5.03;;;2.90;;
59728;SDS011;45588;51.598;5.618;2023-08-06T11:53:11;7.80;;;2.80;;
59728;SDS011;45588;51.598;5.618;2023-08-06T11:55:36;6.07;;;2.55;;
59728;SDS011;45588;51.598;5.618;2023-08-06T11:58:05;4.38;;;2.85;;
59728;SDS011;45588;51.598;5.618;2023-08-06T12:00:30;6.22;;;3.00;;
59728;SDS011;45588;51.598;5.618;2023-08-06T12:02:55;5.82;;;2.53;;
59728;SDS011;45588;51.598;5.618;2023-08-06T12:05:21;4.55;;;2.60;;
59728;SDS011;45588;51.598;5.618;2023-08-06T12:07:51;5.75;;;4.22;;
59728;SDS011;45588;51.598;5.618;2023-08-06T12:10:16;6.25;;;2.70;;
59728;SDS011;45588;51.598;5.618;2023-08-06T12:12:42;4.80;;;2.47;;
59728;SDS011;45588;51.598;5.618;2023-08-06T12:15:08;5.20;;;2.90;;
59728;SDS011;45588;51.598;5.618;2023-08-06T12:17:33;6.30;;;2.35;;
59728;SDS011;45588;51.598;5.618;2023-08-06T12:19:58;6.95;;;3.22;;
59728;SDS011;45588;51.598;5.618;2023-08-06T12:22:24;6.18;;;2.65;;
59728;SDS011;45588;51.598;5.618;2023-08-06T12:24:49;4.20;;;2.58;;
59728;SDS011;45588;51.598;5.618;2023-08-06T12:27:14;6.00;;;3.27;;
59728;SDS011;45588;51.598;5.618;2023-08-06T12:29:44;5.90;;;3.60;;
59728;SDS011;45588;51.598;5.618;2023-08-06T12:32:10;8.82;;;2.90;;
59728;SDS011;45588;51.598;5.618;2023-08-06T12:34:37;7.28;;;4.82;;
59728;SDS011;45588;51.598;5.618;2023-08-06T12:37:02;9.32;;;4.03;;
59728;SDS011;45588;51.598;5.618;2023-08-06T12:39:28;6.60;;;2.67;;
59728;SDS011;45588;51.598;5.618;2023-08-06T12:41:54;8.90;;;5.40;;
59728;SDS011;45588;51.598;5.618;2023-08-06T12:44:19;6.25;;;3.47;;
59728;SDS011;45588;51.598;5.618;2023-08-06T12:46:44;6.47;;;3.50;;
59728;SDS011;45588;51.598;5.618;2023-08-06T12:49:09;9.90;;;5.27;;
59728;SDS011;45588;51.598;5.618;2023-08-06T12:51:34;9.10;;;5.20;;
59728;SDS011;45588;51.598;5.618;2023-08-06T12:54:00;7.72;;;4.47;;
59728;SDS011;45588;51.598;5.618;2023-08-06T12:56:25;8.82;;;5.07;;
59728;SDS011;45588;51.598;5.618;2023-08-06T12:58:50;7.50;;;3.08;;
59728;SDS011;45588;51.598;5.618;2023-08-06T13:01:16;5.00;;;2.92;;
59728;SDS011;45588;51.598;5.618;2023-08-06T13:03:41;3.75;;;2.35;;
59728;SDS011;45588;51.598;5.618;2023-08-06T13:06:06;5.45;;;2.28;;
59728;SDS011;45588;51.598;5.618;2023-08-06T13:08:32;3.50;;;2.92;;
59728;SDS011;45588;51.598;5.618;2023-08-06T13:10:58;6.75;;;4.70;;
59728;SDS011;45588;51.598;5.618;2023-08-06T13:13:23;7.40;;;5.63;;
59728;SDS011;45588;51.598;5.618;2023-08-06T13:15:51;7.82;;;5.75;;
59728;SDS011;45588;51.598;5.618;2023-08-06T13:18:16;9.90;;;6.22;;
59728;SDS011;45588;51.598;5.618;2023-08-06T13:20:41;4.10;;;2.87;;
59728;SDS011;45588;51.598;5.618;2023-08-06T13:23:06;10.43;;;5.87;;
59728;SDS011;45588;51.598;5.618;2023-08-06T13:25:31;6.30;;;3.87;;
59728;SDS011;45588;51.598;5.618;2023-08-06T13:28:01;8.18;;;5.57;;
59728;SDS011;45588;51.598;5.618;2023-08-06T13:30:26;6.60;;;5.17;;
59728;SDS011;45588;51.598;5.618;2023-08-06T13:32:52;8.02;;;4.68;;
59728;SDS011;45588;51.598;5.618;2023-08-06T13:35:17;9.15;;;3.92;;
59728;SDS011;45588;51.598;5.618;2023-08-06T13:37:42;11.65;;;5.63;;
59728;SDS011;45588;51.598;5.618;2023-08-06T13:40:07;8.70;;;5.90;;
59728;SDS011;45588;51.598;5.618;2023-08-06T13:42:33;6.65;;;4.13;;
59728;SDS011;45588;51.598;5.618;2023-08-06T13:44:59;10.70;;;4.07;;
59728;SDS011;45588;51.598;5.618;2023-08-06T13:47:28;11.88;;;7.18;;
59728;SDS011;45588;51.598;5.618;2023-08-06T13:49:53;6.32;;;3.70;;
59728;SDS011;45588;51.598;5.618;2023-08-06T13:52:18;9.48;;;6.22;;
59728;SDS011;45588;51.598;5.618;2023-08-06T13:54:43;9.57;;;4.40;;
59728;SDS011;45588;51.598;5.618;2023-08-06T13:57:09;10.73;;;4.63;;
59728;SDS011;45588;51.598;5.618;2023-08-06T13:59:34;7.80;;;4.20;;
59728;SDS011;45588;51.598;5.618;2023-08-06T14:01:59;11.20;;;7.55;;
59728;SDS011;45588;51.598;5.618;2023-08-06T14:04:25;8.25;;;4.90;;
59728;SDS011;45588;51.598;5.618;2023-08-06T14:06:50;5.47;;;3.50;;
59728;SDS011;45588;51.598;5.618;2023-08-06T14:09:15;8.87;;;3.33;;
59728;SDS011;45588;51.598;5.618;2023-08-06T14:11:43;7.97;;;5.75;;
59728;SDS011;45588;51.598;5.618;2023-08-06T14:14:09;10.90;;;5.78;;
59728;SDS011;45588;51.598;5.618;2023-08-06T14:16:34;6.37;;;5.40;;
59728;SDS011;45588;51.598;5.618;2023-08-06T14:18:59;4.82;;;2.70;;
59728;SDS011;45588;51.598;5.618;2023-08-06T14:21:24;3.77;;;2.77;;
59728;SDS011;45588;51.598;5.618;2023-08-06T14:23:50;6.40;;;5.43;;
59728;SDS011;45588;51.598;5.618;2023-08-06T14:26:15;9.77;;;5.45;;
59728;SDS011;45588;51.598;5.618;2023-08-06T14:28:40;5.00;;;3.05;;
59728;SDS011;45588;51.598;5.618;2023-08-06T14:31:05;8.35;;;3.90;;
59728;SDS011;45588;51.598;5.618;2023-08-06T14:33:31;10.00;;;6.20;;
59728;SDS011;45588;51.598;5.618;2023-08-06T14:35:56;7.20;;;3.90;;
59728;SDS011;45588;51.598;5.618;2023-08-06T14:38:22;9.47;;;3.60;;
59728;SDS011;45588;51.598;5.618;2023-08-06T14:40:47;8.65;;;6.32;;
59728;SDS011;45588;51.598;5.618;2023-08-06T14:43:12;5.18;;;3.30;;
59728;SDS011;45588;51.598;5.618;2023-08-06T14:45:40;7.57;;;3.63;;